createdAt,value
2019-04-23T00:02:25.093Z,99.90
2019-04-23T00:04:48.136Z,99.90
2019-04-23T00:07:39.564Z,99.90
2019-04-23T00:09:57.168Z,99.90
2019-04-23T00:12:30.123Z,99.90
2019-04-23T00:15:04.518Z,99.90
2019-04-23T00:17:35.835Z,99.90
2019-04-23T00:20:00.735Z,99.90
2019-04-23T00:22:36.667Z,99.90
2019-04-23T00:27:53.317Z,99.90
2019-04-23T00:30:18.856Z,99.90
2019-04-23T00:32:48.000Z,99.90
2019-04-23T00:35:23.665Z,99.90
2019-04-23T00:37:47.442Z,99.90
2019-04-23T00:40:20.274Z,99.90
2019-04-23T00:42:47.911Z,99.90
2019-04-23T00:45:24.600Z,99.90
2019-04-23T00:47:52.741Z,99.90
2019-04-23T00:52:50.204Z,99.90
2019-04-23T00:55:25.311Z,99.90
2019-04-23T00:57:57.830Z,99.90
2019-04-23T01:00:28.167Z,99.90
2019-04-23T01:02:53.361Z,99.90
2019-04-23T01:05:26.231Z,99.90
2019-04-23T01:07:49.993Z,99.90
2019-04-23T01:15:29.964Z,99.90
2019-04-23T01:18:02.276Z,99.90
2019-04-23T01:20:29.268Z,99.90
2019-04-23T01:22:42.080Z,99.90
2019-04-23T01:25:21.244Z,99.90
2019-04-23T01:28:07.701Z,99.90
2019-04-23T01:30:42.554Z,99.90
2019-04-23T01:33:24.724Z,99.90
2019-04-23T01:35:55.144Z,99.90
2019-04-23T01:38:11.240Z,99.90
2019-04-23T01:40:40.637Z,99.90
2019-04-23T01:43:16.716Z,99.90
2019-04-23T01:45:35.773Z,99.90
2019-04-23T01:48:13.263Z,99.90
2019-04-23T01:50:50.122Z,99.90
2019-04-23T01:53:24.716Z,99.90
2019-04-23T01:55:49.779Z,99.90
2019-04-23T01:58:38.775Z,99.90
2019-04-23T02:00:47.813Z,99.90
2019-04-23T02:03:18.154Z,99.90
2019-04-23T02:05:55.812Z,99.90
2019-04-23T02:08:12.870Z,99.90
2019-04-23T02:13:28.205Z,99.90
2019-04-23T02:15:49.444Z,99.90
2019-04-23T02:18:16.322Z,99.90
2019-04-23T02:20:55.187Z,99.90
2019-04-23T02:23:26.247Z,99.90
2019-04-23T02:28:30.341Z,99.90
2019-04-23T02:38:44.346Z,99.90
2019-04-23T02:43:24.450Z,99.90
2019-04-23T02:48:40.579Z,99.90
2019-04-23T02:51:05.385Z,99.90
2019-04-23T02:53:57.901Z,99.90
2019-04-23T02:58:35.155Z,99.90
2019-04-23T03:03:49.710Z,99.90
2019-04-23T03:06:16.705Z,99.90
2019-04-23T03:08:36.428Z,99.90
2019-04-23T03:11:09.788Z,99.90
2019-04-23T03:16:19.814Z,99.90
2019-04-23T03:18:53.612Z,99.90
2019-04-23T03:21:25.452Z,99.90
2019-04-23T03:26:28.688Z,99.90
2019-04-23T03:32:48.433Z,99.90
2019-04-23T03:36:56.464Z,99.90
2019-04-23T03:41:27.881Z,99.90
2019-04-23T03:43:51.949Z,99.90
2019-04-23T03:46:40.153Z,99.90
2019-04-23T03:49:30.497Z,99.90
2019-04-23T03:54:26.338Z,99.90
2019-04-23T03:58:58.235Z,99.90
2019-04-23T04:01:29.190Z,99.90
2019-04-23T04:06:45.510Z,99.90
2019-04-23T04:09:17.454Z,99.90
2019-04-23T04:11:35.675Z,99.90
2019-04-23T04:14:18.088Z,99.90
2019-04-23T04:16:38.996Z,99.90
2019-04-23T04:19:09.029Z,99.90
2019-04-23T04:21:33.790Z,99.90
2019-04-23T04:24:17.280Z,99.90
2019-04-23T04:29:20.985Z,99.90
2019-04-23T04:31:42.252Z,99.90
2019-04-23T04:34:21.426Z,99.90
2019-04-23T04:36:53.530Z,99.90
2019-04-23T04:39:15.135Z,99.90
2019-04-23T04:41:34.549Z,99.90
2019-04-23T04:44:17.610Z,99.90
2019-04-23T04:46:44.208Z,99.90
2019-04-23T04:49:05.632Z,99.90
2019-04-23T04:51:55.483Z,99.90
2019-04-23T04:56:36.084Z,99.90
2019-04-23T04:59:11.955Z,99.90
2019-04-23T05:01:30.231Z,99.90
2019-04-23T05:04:14.126Z,99.90
2019-04-23T05:06:44.705Z,99.90
2019-04-23T05:09:19.549Z,99.90
2019-04-23T05:14:06.754Z,99.90
2019-04-23T05:16:37.070Z,99.90
2019-04-23T05:19:19.977Z,99.90
2019-04-23T05:21:49.627Z,99.90
2019-04-23T05:24:08.266Z,99.90
2019-04-23T05:26:27.547Z,99.90
2019-04-23T05:29:17.155Z,99.90
2019-04-23T05:31:49.769Z,99.90
2019-04-23T05:34:19.700Z,99.90
2019-04-23T05:44:23.846Z,99.90
2019-04-23T05:46:52.195Z,99.90
2019-04-23T05:51:55.553Z,99.90
2019-04-23T05:54:29.910Z,99.90
2019-04-23T05:56:52.006Z,99.90
2019-04-23T05:59:25.878Z,99.90
2019-04-23T06:01:58.849Z,99.90
2019-04-23T06:04:24.626Z,99.90
2019-04-23T06:07:10.791Z,99.90
2019-04-23T06:09:25.138Z,99.90
2019-04-23T06:11:58.691Z,99.90
2019-04-23T06:14:30.772Z,99.90
2019-04-23T06:17:03.771Z,99.90
2019-04-23T06:19:21.439Z,99.90
2019-04-23T06:27:00.744Z,99.90
2019-04-23T06:29:39.384Z,99.90
2019-04-23T06:31:55.349Z,99.90
2019-04-23T06:34:31.083Z,99.90
2019-04-23T06:36:57.272Z,99.90
2019-04-23T06:39:32.403Z,99.90
2019-04-23T06:44:32.159Z,99.90
2019-04-23T06:52:08.395Z,99.90
2019-04-23T06:54:42.399Z,99.90
2019-04-23T06:59:30.668Z,99.90
2019-04-23T07:02:07.989Z,99.90
2019-04-23T07:04:36.156Z,99.90
2019-04-23T07:07:23.894Z,99.90
2019-04-23T07:09:31.161Z,99.90
2019-04-23T07:12:08.518Z,99.90
2019-04-23T07:14:40.533Z,99.90
2019-04-23T07:17:05.350Z,99.90
2019-04-23T07:19:37.078Z,99.90
2019-04-23T07:22:14.663Z,99.90
2019-04-23T07:24:34.530Z,99.90
2019-04-23T07:27:02.387Z,99.90
2019-04-23T07:29:40.586Z,99.90
2019-04-23T07:32:05.595Z,99.90
2019-04-23T07:34:41.490Z,99.90
2019-04-23T07:37:05.157Z,99.90
2019-04-23T07:45:02.467Z,99.90
2019-04-23T07:47:31.348Z,99.90
2019-04-23T07:50:19.233Z,99.90
2019-04-23T07:52:40.731Z,99.90
2019-04-23T07:55:21.525Z,99.90
2019-04-23T07:57:40.062Z,99.90
2019-04-23T08:00:11.345Z,99.90
2019-04-23T08:02:37.976Z,99.90
2019-04-23T08:05:20.278Z,99.90
2019-04-23T08:07:47.278Z,99.90
2019-04-23T08:10:10.166Z,99.90
2019-04-23T08:12:42.483Z,99.90
2019-04-23T08:15:20.167Z,99.90
2019-04-23T08:17:35.805Z,99.90
2019-04-23T08:20:32.256Z,99.90
2019-04-23T08:22:40.886Z,99.90
2019-04-23T08:25:19.334Z,99.90
2019-04-23T08:27:51.502Z,99.90
2019-04-23T08:30:17.731Z,99.90
2019-04-23T08:32:53.916Z,99.90
2019-04-23T08:35:18.564Z,99.90
2019-04-23T08:38:01.494Z,99.90
2019-04-23T08:40:25.245Z,99.90
2019-04-23T08:45:21.718Z,99.90
2019-04-23T08:50:50.859Z,99.90
2019-04-23T08:53:31.259Z,99.90
2019-04-23T08:58:13.323Z,99.90
2019-04-23T09:03:32.856Z,99.90
2019-04-23T09:08:19.095Z,99.90
2019-04-23T09:10:49.545Z,99.90
2019-04-23T09:13:40.165Z,99.90
2019-04-23T09:15:51.238Z,99.90
2019-04-23T09:18:23.100Z,99.90
2019-04-23T09:20:44.539Z,99.90
2019-04-23T09:23:20.880Z,99.90
2019-04-23T09:28:26.076Z,99.90
2019-04-23T09:30:55.449Z,99.90
2019-04-23T09:33:39.453Z,99.90
2019-04-23T09:36:23.842Z,99.90
2019-04-23T09:39:07.586Z,99.90
2019-04-23T09:41:42.086Z,99.90
2019-04-23T09:44:47.266Z,99.90
2019-04-23T09:47:07.075Z,99.90
2019-04-23T09:49:32.709Z,99.90
2019-04-23T09:52:09.610Z,99.90
2019-04-23T09:54:42.150Z,99.90
2019-04-23T09:57:04.588Z,99.90
2019-04-23T09:59:39.113Z,99.90
2019-04-23T10:02:01.011Z,99.90
2019-04-23T10:04:26.621Z,99.90
2019-04-23T10:06:56.434Z,99.90
2019-04-23T10:09:12.246Z,99.90
2019-04-23T10:11:41.018Z,99.90
2019-04-23T10:14:10.570Z,99.90
2019-04-23T10:16:39.094Z,99.90
2019-04-23T10:19:08.008Z,99.90
2019-04-23T10:21:37.455Z,99.90
2019-04-23T10:24:07.501Z,99.90
2019-04-23T10:26:37.719Z,99.90
2019-04-23T10:29:09.726Z,99.90
2019-04-23T10:31:39.883Z,99.90
2019-04-23T10:34:10.349Z,99.90
2019-04-23T10:36:40.615Z,99.90
2019-04-23T10:39:15.518Z,99.90
2019-04-23T10:41:42.503Z,99.50
2019-04-23T10:44:21.472Z,98.70
2019-04-23T10:47:28.151Z,98.10
2019-04-23T10:50:00.243Z,98.40
2019-04-23T10:52:28.072Z,98.00
2019-04-23T10:55:00.425Z,98.10
2019-04-23T10:57:25.308Z,97.80
2019-04-23T10:59:55.853Z,97.50
2019-04-23T11:05:26.668Z,96.50
2019-04-23T11:07:31.253Z,96.10
2019-04-23T11:17:46.050Z,95.40
2019-04-23T11:22:45.457Z,94.80
2019-04-23T11:25:28.117Z,95.00
2019-04-23T11:28:21.384Z,95.20
2019-04-23T11:30:25.861Z,95.00
2019-04-23T11:32:57.078Z,95.20
2019-04-23T11:35:21.555Z,95.10
2019-04-23T11:40:21.291Z,95.30
2019-04-23T11:42:50.068Z,94.40
2019-04-23T11:45:30.583Z,94.10
2019-04-23T11:48:22.529Z,93.70
2019-04-23T11:50:43.146Z,93.80
2019-04-23T11:52:50.091Z,93.30
2019-04-23T11:58:00.782Z,93.00
2019-04-23T12:03:02.855Z,93.10
2019-04-23T12:08:33.505Z,93.80
2019-04-23T12:11:15.230Z,93.10
2019-04-23T12:18:35.398Z,93.10
2019-04-23T12:21:00.146Z,92.70
2019-04-23T12:23:40.875Z,92.20
2019-04-23T12:26:03.664Z,92.50
2019-04-23T12:28:40.219Z,92.30
2019-04-23T12:30:56.795Z,92.10
2019-04-23T12:33:44.862Z,92.20
2019-04-23T12:36:33.903Z,92.40
2019-04-23T12:38:48.961Z,92.70
2019-04-23T12:41:21.121Z,93.00
2019-04-23T12:43:54.589Z,93.10
2019-04-23T12:46:27.707Z,92.60
2019-04-23T12:49:00.557Z,93.10
2019-04-23T12:51:26.694Z,92.70
2019-04-23T12:53:49.136Z,92.20
2019-04-23T12:56:31.823Z,91.70
2019-04-23T12:58:46.537Z,90.40
2019-04-23T13:01:25.556Z,90.50
2019-04-23T13:03:45.565Z,89.30
2019-04-23T13:06:20.640Z,89.70
2019-04-23T13:11:30.072Z,89.90
2019-04-23T13:14:00.478Z,89.70
2019-04-23T13:16:37.661Z,90.00
2019-04-23T13:19:06.391Z,90.00
2019-04-23T13:21:45.066Z,90.20
2019-04-23T13:23:54.717Z,89.00
2019-04-23T13:26:24.744Z,88.40
2019-04-23T13:29:07.797Z,88.40
2019-04-23T13:31:22.376Z,89.40
2019-04-23T13:33:58.461Z,89.60
2019-04-23T13:36:32.889Z,89.60
2019-04-23T13:38:54.997Z,89.50
2019-04-23T13:41:26.078Z,89.20
2019-04-23T13:46:28.756Z,88.80
2019-04-23T13:48:53.651Z,89.10
2019-04-23T13:53:59.340Z,89.00
2019-04-23T13:56:39.136Z,88.50
2019-04-23T13:59:07.348Z,89.00
2019-04-23T14:01:35.463Z,88.00
2019-04-23T14:04:04.560Z,88.50
2019-04-23T14:06:37.288Z,88.50
2019-04-23T14:09:11.591Z,87.60
2019-04-23T14:11:51.827Z,87.60
2019-04-23T14:14:26.666Z,86.50
2019-04-23T14:17:08.373Z,85.80
2019-04-23T14:19:06.727Z,86.00
2019-04-23T14:21:45.901Z,85.90
2019-04-23T14:27:12.016Z,86.30
2019-04-23T14:29:22.947Z,86.10
2019-04-23T14:32:00.876Z,86.00
2019-04-23T14:34:21.128Z,85.90
2019-04-23T14:36:55.630Z,86.10
2019-04-23T14:39:25.097Z,86.10
2019-04-23T14:41:53.928Z,85.70
2019-04-23T14:44:25.780Z,85.80
2019-04-23T14:47:13.299Z,85.80
2019-04-23T14:49:34.081Z,85.70
2019-04-23T14:52:06.147Z,85.50
2019-04-23T14:55:06.186Z,86.20
2019-04-23T14:57:07.932Z,85.90
2019-04-23T14:59:29.291Z,86.10
2019-04-23T15:02:05.380Z,86.00
2019-04-23T15:07:10.939Z,86.40
2019-04-23T15:14:45.993Z,86.40
2019-04-23T15:17:18.687Z,86.20
2019-04-23T15:22:13.501Z,86.30
2019-04-23T15:24:54.606Z,86.50
2019-04-23T15:29:31.838Z,86.60
2019-04-23T15:34:45.406Z,86.90
2019-04-23T15:37:33.824Z,85.50
2019-04-23T15:39:49.545Z,83.80
2019-04-23T15:42:16.615Z,84.00
2019-04-23T15:44:48.802Z,83.60
2019-04-23T15:47:19.196Z,83.30
2019-04-23T15:49:51.539Z,83.50
2019-04-23T15:52:27.308Z,83.40
2019-04-23T15:54:49.683Z,83.90
2019-04-23T15:57:26.874Z,85.60
2019-04-23T15:59:49.725Z,86.80
2019-04-23T16:01:49.872Z,86.90
2019-04-23T16:04:20.111Z,86.70
2019-04-23T16:06:49.802Z,86.20
2019-04-23T16:09:50.866Z,87.30
2019-04-23T16:12:10.892Z,87.70
2019-04-23T16:14:56.997Z,88.50
2019-04-23T16:17:24.025Z,89.60
2019-04-23T16:20:03.400Z,90.30
2019-04-23T16:22:20.415Z,90.40
2019-04-23T16:25:02.739Z,90.80
2019-04-23T16:27:36.565Z,91.10
2019-04-23T16:32:43.162Z,91.60
2019-04-23T16:35:20.076Z,91.70
2019-04-23T16:37:36.193Z,91.90
2019-04-23T16:40:16.555Z,91.90
2019-04-23T16:42:38.130Z,92.00
2019-04-23T16:45:12.548Z,92.20
2019-04-23T16:47:38.903Z,92.10
2019-04-23T16:50:13.032Z,92.30
2019-04-23T16:52:35.904Z,92.30
2019-04-23T16:55:10.839Z,92.40
2019-04-23T17:00:22.911Z,92.70
2019-04-23T17:03:07.266Z,92.80
2019-04-23T17:05:12.526Z,92.90
2019-04-23T17:07:36.269Z,93.10
2019-04-23T17:10:13.085Z,93.10
2019-04-23T17:12:47.432Z,93.10
2019-04-23T17:15:07.597Z,93.10
2019-04-23T17:17:40.847Z,93.10
2019-04-23T17:22:38.795Z,92.70
2019-04-23T17:28:03.698Z,92.70
2019-04-23T17:30:13.138Z,92.60
2019-04-23T17:32:45.227Z,92.60
2019-04-23T17:35:35.136Z,92.80
2019-04-23T17:37:48.647Z,93.00
2019-04-23T17:40:18.141Z,93.10
2019-04-23T17:42:56.884Z,93.30
2019-04-23T17:48:13.254Z,93.70
2019-04-23T17:50:44.289Z,93.80
2019-04-23T17:53:19.943Z,94.10
2019-04-23T17:55:54.647Z,94.30
2019-04-23T17:58:15.571Z,94.60
2019-04-23T18:03:18.362Z,95.10
2019-04-23T18:08:17.849Z,95.60
2019-04-23T18:10:59.444Z,95.80
2019-04-23T18:13:22.953Z,96.30
2019-04-23T18:15:53.559Z,96.50
2019-04-23T18:18:33.560Z,96.90
2019-04-23T18:21:08.462Z,97.20
2019-04-23T18:23:22.856Z,97.30
2019-04-23T18:26:04.081Z,97.70
2019-04-23T18:28:29.655Z,98.10
2019-04-23T18:31:11.372Z,98.40
2019-04-23T18:36:05.309Z,99.10
2019-04-23T18:38:39.779Z,99.40
2019-04-23T18:43:35.605Z,99.90
2019-04-23T18:46:18.538Z,99.90
2019-04-23T18:56:12.488Z,99.90
2019-04-23T19:04:17.199Z,99.90
2019-04-23T19:14:08.326Z,99.90
2019-04-23T19:16:40.448Z,99.90
2019-04-23T19:19:11.729Z,99.90
2019-04-23T19:22:07.003Z,99.90
2019-04-23T19:24:03.355Z,99.90
2019-04-23T19:29:15.989Z,99.90
2019-04-23T19:34:29.772Z,99.90
2019-04-23T19:36:59.160Z,99.90
2019-04-23T19:39:26.826Z,99.90
2019-04-23T19:42:02.248Z,99.90
2019-04-23T19:44:27.926Z,99.90
2019-04-23T19:49:28.817Z,99.90
2019-04-23T19:51:53.439Z,99.90
2019-04-23T19:59:35.938Z,99.90
2019-04-23T20:04:32.239Z,99.90
2019-04-23T20:07:13.959Z,99.90
2019-04-23T20:11:54.963Z,99.90
2019-04-23T20:14:27.569Z,99.90
2019-04-23T20:19:31.634Z,99.90
2019-04-23T20:22:00.347Z,99.90
2019-04-23T20:27:06.300Z,99.90
2019-04-23T20:29:45.413Z,99.90
2019-04-23T20:34:56.604Z,99.90
2019-04-23T20:37:12.615Z,99.90
2019-04-23T20:39:50.574Z,99.90
2019-04-23T20:47:32.305Z,99.90
2019-04-23T20:52:10.371Z,99.90
2019-04-23T20:57:39.194Z,99.90
2019-04-23T21:05:16.277Z,99.90
2019-04-23T21:10:19.925Z,99.90
2019-04-23T21:15:24.215Z,99.90
2019-04-23T21:20:26.605Z,99.90
2019-04-23T21:22:55.801Z,99.90
2019-04-23T21:25:27.875Z,99.90
2019-04-23T21:28:06.354Z,99.90
2019-04-23T21:30:58.603Z,99.90
2019-04-23T21:36:12.645Z,99.90
2019-04-23T21:46:24.221Z,99.90
2019-04-23T21:51:42.217Z,99.90
2019-04-23T21:53:53.164Z,99.90
2019-04-23T21:56:21.013Z,99.90
2019-04-23T21:58:58.037Z,99.90
2019-04-23T22:01:33.288Z,99.90
2019-04-23T22:04:08.726Z,99.90
2019-04-23T22:06:30.610Z,99.90
2019-04-23T22:09:02.807Z,99.90
2019-04-23T22:14:04.134Z,99.90
2019-04-23T22:19:10.553Z,99.90
2019-04-23T22:21:33.289Z,99.90
2019-04-23T22:24:02.386Z,99.90
2019-04-23T22:26:33.546Z,99.90
2019-04-23T22:36:36.999Z,99.90
2019-04-23T22:41:36.147Z,99.90
2019-04-23T22:44:07.115Z,99.90
2019-04-23T22:46:35.394Z,99.90
2019-04-23T22:51:46.246Z,99.90
2019-04-23T22:54:12.315Z,99.90
2019-04-23T22:56:50.672Z,99.90
2019-04-23T22:59:18.654Z,99.90
2019-04-23T23:01:56.945Z,99.90
2019-04-23T23:06:56.791Z,99.90
2019-04-23T23:11:54.303Z,99.90
2019-04-23T23:21:58.160Z,99.90
2019-04-23T23:24:16.897Z,99.90
2019-04-23T23:26:55.993Z,99.90
2019-04-23T23:29:12.313Z,99.90
2019-04-23T23:34:15.657Z,99.90
2019-04-23T23:41:48.991Z,99.90
2019-04-23T23:49:22.145Z,99.90
2019-04-23T23:51:49.578Z,99.90
2019-04-23T23:54:13.605Z,99.90
2019-04-23T23:56:58.424Z,99.90
2019-04-23T23:59:24.670Z,99.90
